sensor_id;sensor_type;location;lat;lon;timestamp;P1;durP1;ratioP1;P2;durP2;ratioP2
78120;SDS011;67585;44.802;10.332;2023-05-07T00:01:04;2.85;;;1.30;;
78120;SDS011;67585;44.802;10.332;2023-05-07T00:03:31;4.55;;;1.85;;
78120;SDS011;67585;44.802;10.332;2023-05-07T00:05:57;4.07;;;1.08;;
78120;SDS011;67585;44.802;10.332;2023-05-07T00:08:23;7.43;;;1.92;;
78120;SDS011;67585;44.802;10.332;2023-05-07T00:10:48;6.88;;;1.60;;
78120;SDS011;67585;44.802;10.332;2023-05-07T00:13:14;4.03;;;1.50;;
78120;SDS011;67585;44.802;10.332;2023-05-07T00:15:40;3.08;;;1.83;;
78120;SDS011;67585;44.802;10.332;2023-05-07T00:18:05;3.03;;;1.55;;
78120;SDS011;67585;44.802;10.332;2023-05-07T00:20:30;9.50;;;1.70;;
78120;SDS011;67585;44.802;10.332;2023-05-07T00:22:56;7.35;;;4.15;;
78120;SDS011;67585;44.802;10.332;2023-05-07T00:25:21;5.93;;;2.58;;
78120;SDS011;67585;44.802;10.332;2023-05-07T00:27:46;15.30;;;6.00;;
78120;SDS011;67585;44.802;10.332;2023-05-07T00:30:12;11.73;;;7.00;;
78120;SDS011;67585;44.802;10.332;2023-05-07T00:32:38;15.43;;;7.75;;
78120;SDS011;67585;44.802;10.332;2023-05-07T00:35:04;18.58;;;10.60;;
78120;SDS011;67585;44.802;10.332;2023-05-07T00:39:56;21.25;;;11.65;;
78120;SDS011;67585;44.802;10.332;2023-05-07T00:42:21;23.40;;;12.98;;
78120;SDS011;67585;44.802;10.332;2023-05-07T00:44:47;23.08;;;11.65;;
78120;SDS011;67585;44.802;10.332;2023-05-07T00:47:12;26.67;;;14.73;;
78120;SDS011;67585;44.802;10.332;2023-05-07T00:49:39;27.23;;;14.52;;
78120;SDS011;67585;44.802;10.332;2023-05-07T00:52:07;28.77;;;14.25;;
78120;SDS011;67585;44.802;10.332;2023-05-07T00:54:38;25.20;;;14.43;;
78120;SDS011;67585;44.802;10.332;2023-05-07T00:57:05;28.20;;;15.30;;
78120;SDS011;67585;44.802;10.332;2023-05-07T00:59:31;29.73;;;16.02;;
78120;SDS011;67585;44.802;10.332;2023-05-07T01:01:58;24.70;;;14.52;;
78120;SDS011;67585;44.802;10.332;2023-05-07T01:04:24;33.28;;;17.33;;
78120;SDS011;67585;44.802;10.332;2023-05-07T01:06:50;32.92;;;17.23;;
78120;SDS011;67585;44.802;10.332;2023-05-07T01:09:16;33.05;;;17.13;;
78120;SDS011;67585;44.802;10.332;2023-05-07T01:11:42;29.80;;;17.30;;
78120;SDS011;67585;44.802;10.332;2023-05-07T01:14:09;33.08;;;18.27;;
78120;SDS011;67585;44.802;10.332;2023-05-07T01:16:35;36.30;;;16.80;;
78120;SDS011;67585;44.802;10.332;2023-05-07T01:19:01;33.38;;;17.77;;
78120;SDS011;67585;44.802;10.332;2023-05-07T01:21:27;34.63;;;19.05;;
78120;SDS011;67585;44.802;10.332;2023-05-07T01:23:59;46.20;;;19.38;;
78120;SDS011;67585;44.802;10.332;2023-05-07T01:26:25;36.97;;;17.83;;
78120;SDS011;67585;44.802;10.332;2023-05-07T01:28:51;35.65;;;17.95;;
78120;SDS011;67585;44.802;10.332;2023-05-07T01:31:16;40.72;;;18.38;;
78120;SDS011;67585;44.802;10.332;2023-05-07T01:33:42;35.53;;;19.92;;
78120;SDS011;67585;44.802;10.332;2023-05-07T01:36:11;37.90;;;21.10;;
78120;SDS011;67585;44.802;10.332;2023-05-07T01:38:38;34.67;;;19.23;;
78120;SDS011;67585;44.802;10.332;2023-05-07T01:41:06;35.25;;;18.80;;
78120;SDS011;67585;44.802;10.332;2023-05-07T01:43:32;35.60;;;18.52;;
78120;SDS011;67585;44.802;10.332;2023-05-07T01:45:58;39.58;;;21.13;;
78120;SDS011;67585;44.802;10.332;2023-05-07T01:48:24;34.63;;;18.70;;
78120;SDS011;67585;44.802;10.332;2023-05-07T01:50:49;37.00;;;20.27;;
78120;SDS011;67585;44.802;10.332;2023-05-07T01:53:16;35.30;;;18.27;;
78120;SDS011;67585;44.802;10.332;2023-05-07T01:55:41;34.90;;;19.70;;
78120;SDS011;67585;44.802;10.332;2023-05-07T01:58:07;34.35;;;18.95;;
78120;SDS011;67585;44.802;10.332;2023-05-07T02:00:32;36.67;;;17.80;;
78120;SDS011;67585;44.802;10.332;2023-05-07T02:02:58;35.25;;;17.40;;
78120;SDS011;67585;44.802;10.332;2023-05-07T02:05:23;33.72;;;16.38;;
78120;SDS011;67585;44.802;10.332;2023-05-07T02:07:49;34.45;;;16.80;;
78120;SDS011;67585;44.802;10.332;2023-05-07T02:10:14;33.20;;;18.92;;
78120;SDS011;67585;44.802;10.332;2023-05-07T02:12:40;30.77;;;15.55;;
78120;SDS011;67585;44.802;10.332;2023-05-07T02:15:05;32.45;;;19.27;;
78120;SDS011;67585;44.802;10.332;2023-05-07T02:17:31;35.28;;;18.08;;
78120;SDS011;67585;44.802;10.332;2023-05-07T02:19:58;31.10;;;16.92;;
78120;SDS011;67585;44.802;10.332;2023-05-07T02:22:23;32.92;;;17.65;;
78120;SDS011;67585;44.802;10.332;2023-05-07T02:24:49;31.42;;;17.35;;
78120;SDS011;67585;44.802;10.332;2023-05-07T02:27:14;32.03;;;17.00;;
78120;SDS011;67585;44.802;10.332;2023-05-07T02:29:40;33.95;;;18.05;;
78120;SDS011;67585;44.802;10.332;2023-05-07T02:32:05;30.98;;;17.58;;
78120;SDS011;67585;44.802;10.332;2023-05-07T02:34:31;35.38;;;16.30;;
78120;SDS011;67585;44.802;10.332;2023-05-07T02:36:56;38.15;;;16.58;;
78120;SDS011;67585;44.802;10.332;2023-05-07T02:39:21;29.38;;;16.38;;
78120;SDS011;67585;44.802;10.332;2023-05-07T02:41:47;30.38;;;15.35;;
78120;SDS011;67585;44.802;10.332;2023-05-07T02:44:12;22.10;;;10.90;;
78120;SDS011;67585;44.802;10.332;2023-05-07T02:46:38;15.00;;;8.43;;
78120;SDS011;67585;44.802;10.332;2023-05-07T02:49:03;9.30;;;4.95;;
78120;SDS011;67585;44.802;10.332;2023-05-07T02:51:29;7.60;;;1.75;;
78120;SDS011;67585;44.802;10.332;2023-05-07T02:56:21;8.80;;;2.00;;
78120;SDS011;67585;44.802;10.332;2023-05-07T02:58:46;9.15;;;1.98;;
78120;SDS011;67585;44.802;10.332;2023-05-07T03:01:12;6.25;;;2.17;;
78120;SDS011;67585;44.802;10.332;2023-05-07T03:03:38;6.15;;;1.65;;
78120;SDS011;67585;44.802;10.332;2023-05-07T03:06:05;6.85;;;2.28;;
78120;SDS011;67585;44.802;10.332;2023-05-07T03:08:31;3.67;;;2.95;;
78120;SDS011;67585;44.802;10.332;2023-05-07T03:10:57;7.05;;;2.33;;
78120;SDS011;67585;44.802;10.332;2023-05-07T03:13:22;6.38;;;2.95;;
78120;SDS011;67585;44.802;10.332;2023-05-07T03:15:48;5.25;;;1.25;;
78120;SDS011;67585;44.802;10.332;2023-05-07T03:18:13;5.60;;;2.85;;
78120;SDS011;67585;44.802;10.332;2023-05-07T03:20:39;7.70;;;3.78;;
78120;SDS011;67585;44.802;10.332;2023-05-07T03:23:04;5.50;;;2.20;;
78120;SDS011;67585;44.802;10.332;2023-05-07T03:25:30;6.82;;;1.88;;
78120;SDS011;67585;44.802;10.332;2023-05-07T03:27:55;7.25;;;2.85;;
78120;SDS011;67585;44.802;10.332;2023-05-07T03:30:21;6.05;;;2.97;;
78120;SDS011;67585;44.802;10.332;2023-05-07T03:32:47;7.95;;;3.40;;
78120;SDS011;67585;44.802;10.332;2023-05-07T03:35:12;7.47;;;3.25;;
78120;SDS011;67585;44.802;10.332;2023-05-07T03:37:38;9.63;;;4.15;;
78120;SDS011;67585;44.802;10.332;2023-05-07T03:40:04;8.38;;;3.53;;
78120;SDS011;67585;44.802;10.332;2023-05-07T03:42:30;7.28;;;3.65;;
78120;SDS011;67585;44.802;10.332;2023-05-07T03:44:55;6.43;;;3.33;;
78120;SDS011;67585;44.802;10.332;2023-05-07T03:47:21;8.27;;;3.42;;
78120;SDS011;67585;44.802;10.332;2023-05-07T03:49:46;9.65;;;3.92;;
78120;SDS011;67585;44.802;10.332;2023-05-07T03:52:13;7.57;;;2.85;;
78120;SDS011;67585;44.802;10.332;2023-05-07T03:54:38;10.18;;;4.13;;
78120;SDS011;67585;44.802;10.332;2023-05-07T03:57:04;9.07;;;4.15;;
78120;SDS011;67585;44.802;10.332;2023-05-07T03:59:29;11.52;;;4.75;;
78120;SDS011;67585;44.802;10.332;2023-05-07T04:01:54;9.52;;;3.83;;
78120;SDS011;67585;44.802;10.332;2023-05-07T04:04:20;13.05;;;5.07;;
78120;SDS011;67585;44.802;10.332;2023-05-07T04:06:46;8.32;;;3.20;;
78120;SDS011;67585;44.802;10.332;2023-05-07T04:09:11;6.93;;;3.83;;
78120;SDS011;67585;44.802;10.332;2023-05-07T04:11:37;8.27;;;3.22;;
78120;SDS011;67585;44.802;10.332;2023-05-07T04:14:02;9.45;;;2.83;;
78120;SDS011;67585;44.802;10.332;2023-05-07T04:16:27;6.15;;;2.75;;
78120;SDS011;67585;44.802;10.332;2023-05-07T04:18:53;6.50;;;3.30;;
78120;SDS011;67585;44.802;10.332;2023-05-07T04:21:19;7.15;;;2.30;;
78120;SDS011;67585;44.802;10.332;2023-05-07T04:23:45;8.25;;;2.22;;
78120;SDS011;67585;44.802;10.332;2023-05-07T04:26:12;9.15;;;2.60;;
78120;SDS011;67585;44.802;10.332;2023-05-07T04:28:37;6.70;;;2.40;;
78120;SDS011;67585;44.802;10.332;2023-05-07T04:31:04;4.80;;;2.20;;
78120;SDS011;67585;44.802;10.332;2023-05-07T04:33:29;6.38;;;2.40;;
78120;SDS011;67585;44.802;10.332;2023-05-07T04:35:55;4.80;;;1.92;;
78120;SDS011;67585;44.802;10.332;2023-05-07T04:38:20;5.38;;;2.00;;
78120;SDS011;67585;44.802;10.332;2023-05-07T04:40:46;4.38;;;1.98;;
78120;SDS011;67585;44.802;10.332;2023-05-07T04:43:11;5.20;;;1.52;;
78120;SDS011;67585;44.802;10.332;2023-05-07T04:45:38;6.53;;;2.35;;
78120;SDS011;67585;44.802;10.332;2023-05-07T04:48:06;10.70;;;1.65;;
78120;SDS011;67585;44.802;10.332;2023-05-07T04:50:32;4.97;;;2.25;;
78120;SDS011;67585;44.802;10.332;2023-05-07T04:52:57;6.38;;;3.25;;
78120;SDS011;67585;44.802;10.332;2023-05-07T04:55:23;6.22;;;2.42;;
78120;SDS011;67585;44.802;10.332;2023-05-07T04:57:48;5.20;;;2.42;;
78120;SDS011;67585;44.802;10.332;2023-05-07T05:00:14;5.32;;;2.20;;
78120;SDS011;67585;44.802;10.332;2023-05-07T05:02:40;8.65;;;3.33;;
78120;SDS011;67585;44.802;10.332;2023-05-07T05:05:06;6.25;;;2.58;;
78120;SDS011;67585;44.802;10.332;2023-05-07T05:07:32;6.28;;;2.67;;
78120;SDS011;67585;44.802;10.332;2023-05-07T05:09:57;11.23;;;3.08;;
78120;SDS011;67585;44.802;10.332;2023-05-07T05:12:22;7.55;;;3.55;;
78120;SDS011;67585;44.802;10.332;2023-05-07T05:14:48;5.60;;;3.30;;
78120;SDS011;67585;44.802;10.332;2023-05-07T05:17:13;7.88;;;3.33;;
78120;SDS011;67585;44.802;10.332;2023-05-07T05:19:39;9.10;;;3.75;;
78120;SDS011;67585;44.802;10.332;2023-05-07T05:22:04;7.10;;;3.75;;
78120;SDS011;67585;44.802;10.332;2023-05-07T05:24:30;10.52;;;4.28;;
78120;SDS011;67585;44.802;10.332;2023-05-07T05:26:56;8.68;;;4.85;;
78120;SDS011;67585;44.802;10.332;2023-05-07T05:29:22;10.40;;;5.35;;
78120;SDS011;67585;44.802;10.332;2023-05-07T05:31:47;18.67;;;5.32;;
78120;SDS011;67585;44.802;10.332;2023-05-07T05:34:13;10.05;;;5.53;;
78120;SDS011;67585;44.802;10.332;2023-05-07T05:36:38;12.63;;;6.03;;
78120;SDS011;67585;44.802;10.332;2023-05-07T05:39:04;11.23;;;5.80;;
78120;SDS011;67585;44.802;10.332;2023-05-07T05:41:29;15.50;;;7.05;;
78120;SDS011;67585;44.802;10.332;2023-05-07T05:43:55;13.20;;;5.90;;
78120;SDS011;67585;44.802;10.332;2023-05-07T05:46:21;15.20;;;6.43;;
78120;SDS011;67585;44.802;10.332;2023-05-07T05:48:46;16.95;;;6.32;;
78120;SDS011;67585;44.802;10.332;2023-05-07T05:51:11;15.57;;;7.88;;
78120;SDS011;67585;44.802;10.332;2023-05-07T05:53:37;19.30;;;8.73;;
78120;SDS011;67585;44.802;10.332;2023-05-07T05:56:02;20.30;;;7.95;;
78120;SDS011;67585;44.802;10.332;2023-05-07T05:58:28;15.32;;;6.85;;
78120;SDS011;67585;44.802;10.332;2023-05-07T06:00:53;14.60;;;7.47;;
78120;SDS011;67585;44.802;10.332;2023-05-07T06:03:19;16.27;;;5.97;;
78120;SDS011;67585;44.802;10.332;2023-05-07T06:05:44;17.23;;;7.68;;
78120;SDS011;67585;44.802;10.332;2023-05-07T06:08:10;18.10;;;9.25;;
78120;SDS011;67585;44.802;10.332;2023-05-07T06:10:36;14.60;;;8.50;;
78120;SDS011;67585;44.802;10.332;2023-05-07T06:13:02;16.67;;;8.27;;
78120;SDS011;67585;44.802;10.332;2023-05-07T06:15:27;18.77;;;6.95;;
78120;SDS011;67585;44.802;10.332;2023-05-07T06:17:53;18.48;;;9.18;;
78120;SDS011;67585;44.802;10.332;2023-05-07T06:20:18;22.17;;;9.82;;
78120;SDS011;67585;44.802;10.332;2023-05-07T06:22:43;19.02;;;8.60;;
78120;SDS011;67585;44.802;10.332;2023-05-07T06:25:09;19.92;;;8.85;;
78120;SDS011;67585;44.802;10.332;2023-05-07T06:27:34;24.70;;;9.82;;
78120;SDS011;67585;44.802;10.332;2023-05-07T06:29:59;21.48;;;11.02;;
78120;SDS011;67585;44.802;10.332;2023-05-07T06:32:25;22.52;;;10.93;;
78120;SDS011;67585;44.802;10.332;2023-05-07T06:34:50;23.10;;;10.98;;
78120;SDS011;67585;44.802;10.332;2023-05-07T06:37:16;23.63;;;11.88;;
78120;SDS011;67585;44.802;10.332;2023-05-07T06:39:41;25.80;;;11.95;;
78120;SDS011;67585;44.802;10.332;2023-05-07T06:42:06;22.55;;;10.63;;
78120;SDS011;67585;44.802;10.332;2023-05-07T06:44:32;21.08;;;11.48;;
78120;SDS011;67585;44.802;10.332;2023-05-07T06:46:57;25.80;;;11.90;;
78120;SDS011;67585;44.802;10.332;2023-05-07T06:49:23;24.95;;;13.35;;
78120;SDS011;67585;44.802;10.332;2023-05-07T06:51:48;22.85;;;11.25;;
78120;SDS011;67585;44.802;10.332;2023-05-07T06:54:13;24.13;;;11.95;;
78120;SDS011;67585;44.802;10.332;2023-05-07T06:56:39;24.00;;;11.75;;
78120;SDS011;67585;44.802;10.332;2023-05-07T06:59:05;23.17;;;12.38;;
78120;SDS011;67585;44.802;10.332;2023-05-07T07:01:31;22.48;;;11.60;;
78120;SDS011;67585;44.802;10.332;2023-05-07T07:03:56;24.85;;;13.48;;
78120;SDS011;67585;44.802;10.332;2023-05-07T07:06:21;24.13;;;13.27;;
78120;SDS011;67585;44.802;10.332;2023-05-07T07:08:47;22.40;;;11.73;;
78120;SDS011;67585;44.802;10.332;2023-05-07T07:11:12;30.35;;;12.82;;
78120;SDS011;67585;44.802;10.332;2023-05-07T07:13:37;27.27;;;12.90;;
78120;SDS011;67585;44.802;10.332;2023-05-07T07:16:03;23.25;;;12.10;;
78120;SDS011;67585;44.802;10.332;2023-05-07T07:18:28;26.40;;;11.45;;
78120;SDS011;67585;44.802;10.332;2023-05-07T07:20:54;33.72;;;12.57;;
78120;SDS011;67585;44.802;10.332;2023-05-07T07:23:20;24.25;;;11.45;;
78120;SDS011;67585;44.802;10.332;2023-05-07T07:25:45;21.13;;;11.40;;
78120;SDS011;67585;44.802;10.332;2023-05-07T07:28:11;24.73;;;12.15;;
78120;SDS011;67585;44.802;10.332;2023-05-07T07:30:37;21.60;;;12.52;;
78120;SDS011;67585;44.802;10.332;2023-05-07T07:33:03;24.65;;;12.18;;
78120;SDS011;67585;44.802;10.332;2023-05-07T07:35:29;22.98;;;11.10;;
78120;SDS011;67585;44.802;10.332;2023-05-07T07:37:55;23.30;;;12.20;;
78120;SDS011;67585;44.802;10.332;2023-05-07T07:40:20;22.23;;;11.57;;
78120;SDS011;67585;44.802;10.332;2023-05-07T07:42:45;19.95;;;11.40;;
78120;SDS011;67585;44.802;10.332;2023-05-07T07:45:11;22.27;;;11.23;;
78120;SDS011;67585;44.802;10.332;2023-05-07T07:47:37;23.20;;;12.40;;
78120;SDS011;67585;44.802;10.332;2023-05-07T07:50:02;24.30;;;10.85;;
78120;SDS011;67585;44.802;10.332;2023-05-07T07:52:28;23.30;;;9.70;;
78120;SDS011;67585;44.802;10.332;2023-05-07T07:54:53;20.85;;;9.95;;
78120;SDS011;67585;44.802;10.332;2023-05-07T07:57:19;17.60;;;9.88;;
78120;SDS011;67585;44.802;10.332;2023-05-07T07:59:44;20.40;;;10.20;;
78120;SDS011;67585;44.802;10.332;2023-05-07T08:02:10;23.00;;;10.18;;
78120;SDS011;67585;44.802;10.332;2023-05-07T08:04:35;19.70;;;9.43;;
78120;SDS011;67585;44.802;10.332;2023-05-07T08:07:02;19.70;;;11.10;;
78120;SDS011;67585;44.802;10.332;2023-05-07T08:09:27;21.80;;;11.77;;
78120;SDS011;67585;44.802;10.332;2023-05-07T08:11:53;20.55;;;10.75;;
78120;SDS011;67585;44.802;10.332;2023-05-07T08:14:18;21.55;;;8.98;;
78120;SDS011;67585;44.802;10.332;2023-05-07T08:16:44;22.70;;;10.27;;
78120;SDS011;67585;44.802;10.332;2023-05-07T08:19:09;27.27;;;9.63;;
78120;SDS011;67585;44.802;10.332;2023-05-07T08:21:38;23.98;;;13.65;;
78120;SDS011;67585;44.802;10.332;2023-05-07T08:24:04;24.52;;;12.05;;
78120;SDS011;67585;44.802;10.332;2023-05-07T08:26:30;23.20;;;10.73;;
78120;SDS011;67585;44.802;10.332;2023-05-07T08:28:55;20.20;;;10.35;;
78120;SDS011;67585;44.802;10.332;2023-05-07T08:31:20;21.10;;;9.75;;
78120;SDS011;67585;44.802;10.332;2023-05-07T08:33:46;22.98;;;10.05;;
78120;SDS011;67585;44.802;10.332;2023-05-07T08:36:11;19.75;;;9.63;;
78120;SDS011;67585;44.802;10.332;2023-05-07T08:38:37;19.15;;;8.85;;
78120;SDS011;67585;44.802;10.332;2023-05-07T08:41:02;22.25;;;10.70;;
78120;SDS011;67585;44.802;10.332;2023-05-07T08:43:28;19.58;;;11.00;;
78120;SDS011;67585;44.802;10.332;2023-05-07T08:45:56;18.95;;;8.10;;
78120;SDS011;67585;44.802;10.332;2023-05-07T08:48:27;20.20;;;7.85;;
78120;SDS011;67585;44.802;10.332;2023-05-07T08:50:55;18.83;;;9.57;;
78120;SDS011;67585;44.802;10.332;2023-05-07T08:53:20;16.48;;;8.77;;
78120;SDS011;67585;44.802;10.332;2023-05-07T08:55:46;19.95;;;8.15;;
78120;SDS011;67585;44.802;10.332;2023-05-07T08:58:12;16.77;;;7.68;;
78120;SDS011;67585;44.802;10.332;2023-05-07T09:00:38;16.88;;;8.38;;
78120;SDS011;67585;44.802;10.332;2023-05-07T09:03:05;18.65;;;8.13;;
78120;SDS011;67585;44.802;10.332;2023-05-07T09:05:31;17.38;;;7.90;;
78120;SDS011;67585;44.802;10.332;2023-05-07T09:07:58;16.60;;;7.30;;
78120;SDS011;67585;44.802;10.332;2023-05-07T09:10:25;15.65;;;8.88;;
78120;SDS011;67585;44.802;10.332;2023-05-07T09:12:53;15.18;;;8.43;;
78120;SDS011;67585;44.802;10.332;2023-05-07T09:15:18;12.93;;;6.55;;
78120;SDS011;67585;44.802;10.332;2023-05-07T09:17:44;15.43;;;7.10;;
78120;SDS011;67585;44.802;10.332;2023-05-07T09:20:09;15.65;;;7.05;;
78120;SDS011;67585;44.802;10.332;2023-05-07T09:22:38;15.27;;;8.23;;
78120;SDS011;67585;44.802;10.332;2023-05-07T09:25:05;11.02;;;6.07;;
78120;SDS011;67585;44.802;10.332;2023-05-07T09:27:32;11.65;;;5.10;;
78120;SDS011;67585;44.802;10.332;2023-05-07T09:29:57;9.80;;;5.90;;
78120;SDS011;67585;44.802;10.332;2023-05-07T09:32:22;12.02;;;7.30;;
78120;SDS011;67585;44.802;10.332;2023-05-07T09:34:50;17.90;;;6.22;;
78120;SDS011;67585;44.802;10.332;2023-05-07T09:37:15;12.45;;;7.10;;
78120;SDS011;67585;44.802;10.332;2023-05-07T09:42:13;12.23;;;5.43;;
78120;SDS011;67585;44.802;10.332;2023-05-07T09:44:43;15.65;;;6.93;;
78120;SDS011;67585;44.802;10.332;2023-05-07T09:47:09;13.60;;;6.53;;
78120;SDS011;67585;44.802;10.332;2023-05-07T09:49:37;14.48;;;6.70;;
78120;SDS011;67585;44.802;10.332;2023-05-07T09:52:05;17.15;;;10.10;;
78120;SDS011;67585;44.802;10.332;2023-05-07T09:54:33;14.55;;;7.55;;
78120;SDS011;67585;44.802;10.332;2023-05-07T09:57:01;17.13;;;8.27;;
78120;SDS011;67585;44.802;10.332;2023-05-07T09:59:28;15.95;;;7.00;;
78120;SDS011;67585;44.802;10.332;2023-05-07T10:01:56;13.90;;;8.27;;
78120;SDS011;67585;44.802;10.332;2023-05-07T10:04:24;13.30;;;6.18;;
78120;SDS011;67585;44.802;10.332;2023-05-07T10:06:50;12.85;;;6.40;;
78120;SDS011;67585;44.802;10.332;2023-05-07T10:09:16;12.77;;;6.63;;
78120;SDS011;67585;44.802;10.332;2023-05-07T10:11:43;13.15;;;6.22;;
78120;SDS011;67585;44.802;10.332;2023-05-07T10:14:08;15.35;;;7.88;;
78120;SDS011;67585;44.802;10.332;2023-05-07T10:16:35;14.98;;;6.68;;
78120;SDS011;67585;44.802;10.332;2023-05-07T10:19:02;16.10;;;7.78;;
78120;SDS011;67585;44.802;10.332;2023-05-07T10:21:29;13.18;;;5.50;;
78120;SDS011;67585;44.802;10.332;2023-05-07T10:24:03;11.48;;;7.22;;
78120;SDS011;67585;44.802;10.332;2023-05-07T10:26:31;20.08;;;10.60;;
78120;SDS011;67585;44.802;10.332;2023-05-07T10:29:07;14.95;;;9.82;;
78120;SDS011;67585;44.802;10.332;2023-05-07T10:31:47;13.68;;;8.10;;
78120;SDS011;67585;44.802;10.332;2023-05-07T10:34:19;17.35;;;9.25;;
78120;SDS011;67585;44.802;10.332;2023-05-07T10:36:49;17.35;;;8.63;;
78120;SDS011;67585;44.802;10.332;2023-05-07T10:39:16;21.70;;;9.70;;
78120;SDS011;67585;44.802;10.332;2023-05-07T10:41:42;19.45;;;9.32;;
78120;SDS011;67585;44.802;10.332;2023-05-07T10:44:07;22.98;;;10.15;;
78120;SDS011;67585;44.802;10.332;2023-05-07T10:46:33;18.02;;;9.68;;
78120;SDS011;67585;44.802;10.332;2023-05-07T10:51:25;15.65;;;8.25;;
78120;SDS011;67585;44.802;10.332;2023-05-07T10:56:49;16.45;;;8.25;;
78120;SDS011;67585;44.802;10.332;2023-05-07T11:01:59;14.95;;;7.15;;
78120;SDS011;67585;44.802;10.332;2023-05-07T11:12:17;18.33;;;9.02;;
78120;SDS011;67585;44.802;10.332;2023-05-07T11:15:03;16.70;;;9.23;;
78120;SDS011;67585;44.802;10.332;2023-05-07T11:17:33;14.80;;;7.85;;
78120;SDS011;67585;44.802;10.332;2023-05-07T11:20:00;16.10;;;7.78;;
78120;SDS011;67585;44.802;10.332;2023-05-07T11:25:04;14.88;;;8.23;;
78120;SDS011;67585;44.802;10.332;2023-05-07T11:27:31;17.23;;;9.27;;
78120;SDS011;67585;44.802;10.332;2023-05-07T11:29:56;18.08;;;6.97;;
78120;SDS011;67585;44.802;10.332;2023-05-07T11:32:22;15.57;;;8.30;;
78120;SDS011;67585;44.802;10.332;2023-05-07T11:34:56;19.05;;;9.98;;
78120;SDS011;67585;44.802;10.332;2023-05-07T11:37:23;19.90;;;9.05;;
78120;SDS011;67585;44.802;10.332;2023-05-07T11:39:49;12.85;;;6.93;;
78120;SDS011;67585;44.802;10.332;2023-05-07T11:42:37;13.45;;;6.57;;
78120;SDS011;67585;44.802;10.332;2023-05-07T11:45:04;13.70;;;8.15;;
78120;SDS011;67585;44.802;10.332;2023-05-07T11:47:31;25.90;;;14.13;;
78120;SDS011;67585;44.802;10.332;2023-05-07T11:49:57;18.20;;;10.57;;
78120;SDS011;67585;44.802;10.332;2023-05-07T11:52:28;16.35;;;7.05;;
78120;SDS011;67585;44.802;10.332;2023-05-07T11:54:57;13.98;;;6.28;;
78120;SDS011;67585;44.802;10.332;2023-05-07T11:57:25;12.50;;;6.43;;
78120;SDS011;67585;44.802;10.332;2023-05-07T11:59:58;11.43;;;7.28;;
78120;SDS011;67585;44.802;10.332;2023-05-07T12:02:24;11.07;;;6.28;;
78120;SDS011;67585;44.802;10.332;2023-05-07T12:04:51;11.43;;;6.80;;
78120;SDS011;67585;44.802;10.332;2023-05-07T12:07:17;10.25;;;5.43;;
78120;SDS011;67585;44.802;10.332;2023-05-07T12:09:43;12.35;;;5.38;;
78120;SDS011;67585;44.802;10.332;2023-05-07T12:12:10;13.57;;;6.13;;
78120;SDS011;67585;44.802;10.332;2023-05-07T12:14:39;11.82;;;5.38;;
78120;SDS011;67585;44.802;10.332;2023-05-07T12:17:07;15.10;;;8.02;;
78120;SDS011;67585;44.802;10.332;2023-05-07T12:19:34;12.23;;;5.57;;
78120;SDS011;67585;44.802;10.332;2023-05-07T12:22:03;12.35;;;5.97;;
78120;SDS011;67585;44.802;10.332;2023-05-07T12:24:42;10.02;;;4.88;;
78120;SDS011;67585;44.802;10.332;2023-05-07T12:27:09;12.02;;;6.30;;
78120;SDS011;67585;44.802;10.332;2023-05-07T12:29:34;10.52;;;5.20;;
78120;SDS011;67585;44.802;10.332;2023-05-07T12:31:59;13.13;;;7.22;;
78120;SDS011;67585;44.802;10.332;2023-05-07T12:34:25;12.68;;;6.30;;
78120;SDS011;67585;44.802;10.332;2023-05-07T12:36:50;12.27;;;6.18;;
78120;SDS011;67585;44.802;10.332;2023-05-07T12:39:16;13.95;;;7.40;;
78120;SDS011;67585;44.802;10.332;2023-05-07T12:41:57;10.30;;;6.22;;
78120;SDS011;67585;44.802;10.332;2023-05-07T12:44:33;15.65;;;5.70;;
78120;SDS011;67585;44.802;10.332;2023-05-07T12:47:02;11.77;;;5.45;;
78120;SDS011;67585;44.802;10.332;2023-05-07T12:49:27;13.63;;;8.20;;
78120;SDS011;67585;44.802;10.332;2023-05-07T12:51:53;11.50;;;7.78;;
78120;SDS011;67585;44.802;10.332;2023-05-07T12:54:28;11.30;;;5.57;;
78120;SDS011;67585;44.802;10.332;2023-05-07T12:57:04;12.27;;;6.00;;
78120;SDS011;67585;44.802;10.332;2023-05-07T12:59:35;11.93;;;7.28;;
78120;SDS011;67585;44.802;10.332;2023-05-07T13:02:02;11.20;;;5.40;;
78120;SDS011;67585;44.802;10.332;2023-05-07T13:04:27;12.93;;;6.75;;
78120;SDS011;67585;44.802;10.332;2023-05-07T13:06:52;8.98;;;5.78;;
78120;SDS011;67585;44.802;10.332;2023-05-07T13:09:18;12.63;;;5.68;;
78120;SDS011;67585;44.802;10.332;2023-05-07T13:11:43;12.50;;;4.85;;
78120;SDS011;67585;44.802;10.332;2023-05-07T13:14:09;11.45;;;5.22;;
78120;SDS011;67585;44.802;10.332;2023-05-07T13:16:35;14.55;;;7.00;;
78120;SDS011;67585;44.802;10.332;2023-05-07T13:19:00;9.52;;;5.68;;
78120;SDS011;67585;44.802;10.332;2023-05-07T13:21:25;11.20;;;5.22;;
78120;SDS011;67585;44.802;10.332;2023-05-07T13:23:52;13.20;;;4.95;;
78120;SDS011;67585;44.802;10.332;2023-05-07T13:26:17;15.98;;;6.18;;
78120;SDS011;67585;44.802;10.332;2023-05-07T13:28:46;12.13;;;6.28;;
78120;SDS011;67585;44.802;10.332;2023-05-07T13:31:13;11.55;;;6.63;;
78120;SDS011;67585;44.802;10.332;2023-05-07T13:33:39;9.32;;;3.45;;
78120;SDS011;67585;44.802;10.332;2023-05-07T13:36:04;9.43;;;4.68;;
78120;SDS011;67585;44.802;10.332;2023-05-07T13:38:30;7.82;;;3.42;;
78120;SDS011;67585;44.802;10.332;2023-05-07T13:40:56;11.75;;;6.93;;
78120;SDS011;67585;44.802;10.332;2023-05-07T13:43:21;10.70;;;5.70;;
78120;SDS011;67585;44.802;10.332;2023-05-07T13:45:46;9.82;;;4.97;;
78120;SDS011;67585;44.802;10.332;2023-05-07T13:48:12;9.60;;;4.60;;
78120;SDS011;67585;44.802;10.332;2023-05-07T13:50:40;10.70;;;6.10;;
78120;SDS011;67585;44.802;10.332;2023-05-07T13:53:09;12.50;;;5.00;;
78120;SDS011;67585;44.802;10.332;2023-05-07T13:55:35;10.15;;;4.95;;
78120;SDS011;67585;44.802;10.332;2023-05-07T13:58:01;9.00;;;5.80;;
78120;SDS011;67585;44.802;10.332;2023-05-07T14:00:28;10.02;;;6.57;;
78120;SDS011;67585;44.802;10.332;2023-05-07T14:02:54;9.82;;;5.00;;
78120;SDS011;67585;44.802;10.332;2023-05-07T14:05:20;6.78;;;3.75;;
78120;SDS011;67585;44.802;10.332;2023-05-07T14:07:48;9.55;;;5.88;;
78120;SDS011;67585;44.802;10.332;2023-05-07T14:10:16;9.52;;;4.15;;
78120;SDS011;67585;44.802;10.332;2023-05-07T14:12:43;13.45;;;4.38;;
78120;SDS011;67585;44.802;10.332;2023-05-07T14:15:09;9.00;;;3.97;;
78120;SDS011;67585;44.802;10.332;2023-05-07T14:17:35;10.88;;;4.38;;
78120;SDS011;67585;44.802;10.332;2023-05-07T14:20:01;10.35;;;5.88;;
78120;SDS011;67585;44.802;10.332;2023-05-07T14:22:26;9.18;;;4.13;;
78120;SDS011;67585;44.802;10.332;2023-05-07T14:24:51;8.13;;;4.35;;
78120;SDS011;67585;44.802;10.332;2023-05-07T14:27:17;7.82;;;3.20;;
78120;SDS011;67585;44.802;10.332;2023-05-07T14:29:42;8.38;;;3.15;;
78120;SDS011;67585;44.802;10.332;2023-05-07T14:32:08;7.28;;;3.60;;
78120;SDS011;67585;44.802;10.332;2023-05-07T14:34:33;9.02;;;4.00;;
78120;SDS011;67585;44.802;10.332;2023-05-07T14:36:59;7.75;;;3.15;;
78120;SDS011;67585;44.802;10.332;2023-05-07T14:39:25;9.90;;;3.75;;
78120;SDS011;67585;44.802;10.332;2023-05-07T14:41:51;7.13;;;3.13;;